EIN35L EINN-EGLL
Flight info
| Callsign | EIN35L |
|---|---|
| Flight time | 0h 53m |
| Altitude | 35000 |
| Route | ABAGU3A ABAGU DCT ENJEX DCT AVZAC DCT INFEC DCT JETZI DCT AMFUL/N0406F230 P2 SIRIC |
| Aircraft | A339/H-SADE1E2E3GHIJ3J5M1P2RWXY/LB2D1 |
Departure
| Time | 2026-05-05 21:28 |
|---|---|
| Airport | Shannon Airport (EINN) |
Arrival
| Time | 2026-05-05 22:21 |
|---|---|
| Airport | London Heathrow Airport (EGLL) |
| Time | Latitude | Longitude | Altitude | Speed | Heading |
|---|---|---|---|---|---|
| 2026-05-05 21:12 | 52.69380 | -8.92169 | 28 ft | 0 kts | 184° |
| 2026-05-05 21:22 | 52.69389 | -8.92168 | 28 ft | 3 kts | 184° |
| 2026-05-05 21:22 | 52.69409 | -8.92166 | 28 ft | 3 kts | 184° |
| 2026-05-05 21:22 | 52.69430 | -8.92163 | 26 ft | 3 kts | 184° |
| 2026-05-05 21:23 | 52.69452 | -8.92162 | 29 ft | 3 kts | 208° |
| 2026-05-05 21:23 | 52.69468 | -8.92140 | 28 ft | 3 kts | 274° |
| 2026-05-05 21:23 | 52.69468 | -8.92120 | 28 ft | 0 kts | 298° |
| 2026-05-05 21:26 | 52.69503 | -8.92249 | 28 ft | 17 kts | 294° |
| 2026-05-05 21:26 | 52.69572 | -8.92416 | 27 ft | 19 kts | 312° |
| 2026-05-05 21:26 | 52.69669 | -8.92573 | 30 ft | 20 kts | 316° |
| 2026-05-05 21:27 | 52.69773 | -8.92740 | 26 ft | 22 kts | 316° |
| 2026-05-05 21:27 | 52.69884 | -8.92919 | 28 ft | 23 kts | 316° |
| 2026-05-05 21:27 | 52.69973 | -8.92952 | 28 ft | 6 kts | 36° |
| 2026-05-05 21:27 | 52.70079 | -8.92739 | 29 ft | 69 kts | 51° |
| 2026-05-05 21:28 | 52.70614 | -8.91614 | 29 ft | 173 kts | 51° |
| 2026-05-05 21:28 | 52.71410 | -8.89908 | 808 ft | 193 kts | 52° |
| 2026-05-05 21:28 | 52.72196 | -8.88144 | 2232 ft | 189 kts | 52° |
| 2026-05-05 21:28 | 52.72743 | -8.86055 | 3171 ft | 212 kts | 78° |
| 2026-05-05 21:29 | 52.72627 | -8.83498 | 3815 ft | 237 kts | 101° |
| 2026-05-05 21:29 | 52.72114 | -8.80792 | 4402 ft | 255 kts | 109° |
| 2026-05-05 21:29 | 52.71494 | -8.78016 | 5151 ft | 261 kts | 109° |
| 2026-05-05 21:29 | 52.70885 | -8.75166 | 5423 ft | 267 kts | 108° |
| 2026-05-05 21:30 | 52.70312 | -8.72258 | 6099 ft | 274 kts | 108° |
| 2026-05-05 21:30 | 52.69753 | -8.69229 | 6989 ft | 277 kts | 107° |
| 2026-05-05 21:30 | 52.69197 | -8.66167 | 7871 ft | 282 kts | 106° |
| 2026-05-05 21:30 | 52.68628 | -8.63043 | 8797 ft | 285 kts | 106° |
| 2026-05-05 21:31 | 52.68050 | -8.59884 | 9720 ft | 290 kts | 105° |
| 2026-05-05 21:31 | 52.67469 | -8.56675 | 10523 ft | 298 kts | 105° |
| 2026-05-05 21:31 | 52.66860 | -8.53281 | 10865 ft | 321 kts | 105° |
| 2026-05-05 21:31 | 52.66199 | -8.49613 | 11194 ft | 342 kts | 105° |
| 2026-05-05 21:32 | 52.65511 | -8.45831 | 11905 ft | 348 kts | 105° |
| 2026-05-05 21:32 | 52.64807 | -8.41997 | 12680 ft | 352 kts | 106° |
| 2026-05-05 21:32 | 52.64094 | -8.38118 | 13465 ft | 356 kts | 106° |
| 2026-05-05 21:32 | 52.63374 | -8.34193 | 14184 ft | 360 kts | 106° |
| 2026-05-05 21:33 | 52.62653 | -8.30268 | 14861 ft | 365 kts | 106° |
| 2026-05-05 21:33 | 52.61909 | -8.26231 | 15567 ft | 368 kts | 107° |
| 2026-05-05 21:33 | 52.61160 | -8.22185 | 16257 ft | 372 kts | 107° |
| 2026-05-05 21:33 | 52.60401 | -8.18092 | 16934 ft | 376 kts | 107° |
| 2026-05-05 21:34 | 52.59629 | -8.13941 | 17615 ft | 380 kts | 107° |
| 2026-05-05 21:34 | 52.58849 | -8.09756 | 18289 ft | 385 kts | 107° |
| 2026-05-05 21:34 | 52.58059 | -8.05518 | 18892 ft | 389 kts | 107° |
| 2026-05-05 21:34 | 52.57269 | -8.01302 | 19481 ft | 393 kts | 107° |
| 2026-05-05 21:35 | 52.56458 | -7.96984 | 20054 ft | 397 kts | 107° |
| 2026-05-05 21:35 | 52.55635 | -7.92612 | 20656 ft | 401 kts | 107° |
| 2026-05-05 21:35 | 52.54805 | -7.88205 | 21260 ft | 406 kts | 107° |
| 2026-05-05 21:35 | 52.53964 | -7.83757 | 21859 ft | 410 kts | 108° |
| 2026-05-05 21:36 | 52.53112 | -7.79258 | 22455 ft | 414 kts | 108° |
| 2026-05-05 21:36 | 52.52250 | -7.74719 | 23046 ft | 419 kts | 108° |
| 2026-05-05 21:36 | 52.51377 | -7.70130 | 23626 ft | 423 kts | 108° |
| 2026-05-05 21:36 | 52.50486 | -7.65517 | 24168 ft | 426 kts | 109° |
| 2026-05-05 21:37 | 52.49362 | -7.60998 | 24712 ft | 428 kts | 115° |
| 2026-05-05 21:37 | 52.48132 | -7.56521 | 25201 ft | 432 kts | 115° |
| 2026-05-05 21:37 | 52.46920 | -7.52056 | 25733 ft | 435 kts | 115° |
| 2026-05-05 21:37 | 52.45685 | -7.47502 | 26255 ft | 439 kts | 114° |
| 2026-05-05 21:38 | 52.44442 | -7.42914 | 26800 ft | 442 kts | 114° |
| 2026-05-05 21:38 | 52.43187 | -7.38288 | 27287 ft | 445 kts | 114° |
| 2026-05-05 21:38 | 52.41921 | -7.33634 | 27779 ft | 449 kts | 114° |
| 2026-05-05 21:38 | 52.40639 | -7.28937 | 28267 ft | 452 kts | 114° |
| 2026-05-05 21:39 | 52.39348 | -7.24215 | 28735 ft | 455 kts | 114° |
| 2026-05-05 21:39 | 52.38043 | -7.19463 | 29196 ft | 459 kts | 114° |
| 2026-05-05 21:39 | 52.36731 | -7.14691 | 29645 ft | 462 kts | 114° |
| 2026-05-05 21:39 | 52.35425 | -7.09947 | 30089 ft | 465 kts | 114° |
| 2026-05-05 21:40 | 52.34090 | -7.05104 | 30518 ft | 468 kts | 114° |
| 2026-05-05 21:40 | 52.32744 | -7.00233 | 30948 ft | 471 kts | 114° |
| 2026-05-05 21:40 | 52.31390 | -6.95347 | 31348 ft | 474 kts | 114° |
| 2026-05-05 21:40 | 52.30026 | -6.90428 | 31783 ft | 476 kts | 114° |
| 2026-05-05 21:41 | 52.28654 | -6.85494 | 32180 ft | 479 kts | 115° |
| 2026-05-05 21:41 | 52.27271 | -6.80534 | 32558 ft | 481 kts | 115° |
| 2026-05-05 21:41 | 52.25873 | -6.75533 | 32889 ft | 484 kts | 115° |
| 2026-05-05 21:41 | 52.24473 | -6.70534 | 33177 ft | 486 kts | 115° |
| 2026-05-05 21:42 | 52.23077 | -6.65561 | 33426 ft | 488 kts | 115° |
| 2026-05-05 21:42 | 52.21644 | -6.60463 | 33643 ft | 489 kts | 115° |
| 2026-05-05 21:42 | 52.20242 | -6.55489 | 33887 ft | 489 kts | 115° |
| 2026-05-05 21:42 | 52.18816 | -6.50458 | 34152 ft | 488 kts | 115° |
| 2026-05-05 21:43 | 52.17392 | -6.45429 | 34388 ft | 488 kts | 115° |
| 2026-05-05 21:43 | 52.15969 | -6.40407 | 34629 ft | 488 kts | 115° |
| 2026-05-05 21:43 | 52.14548 | -6.35400 | 34864 ft | 487 kts | 115° |
| 2026-05-05 21:43 | 52.13122 | -6.30386 | 35007 ft | 487 kts | 115° |
| 2026-05-05 21:44 | 52.10274 | -6.20421 | 35051 ft | 484 kts | 115° |
| 2026-05-05 21:44 | 52.07421 | -6.10488 | 35067 ft | 484 kts | 115° |
| 2026-05-05 21:45 | 52.04591 | -6.00633 | 35054 ft | 484 kts | 115° |
| 2026-05-05 21:45 | 52.01799 | -5.90680 | 35050 ft | 484 kts | 115° |
| 2026-05-05 21:46 | 51.99005 | -5.80734 | 35065 ft | 484 kts | 115° |
| 2026-05-05 21:46 | 51.96188 | -5.70792 | 35053 ft | 485 kts | 115° |
| 2026-05-05 21:47 | 51.93366 | -5.60870 | 35053 ft | 485 kts | 115° |
| 2026-05-05 21:47 | 51.91013 | -5.52629 | 35057 ft | 485 kts | 115° |
| 2026-05-05 21:48 | 51.88175 | -5.42737 | 35051 ft | 484 kts | 115° |
| 2026-05-05 21:48 | 51.85337 | -5.32861 | 35049 ft | 483 kts | 115° |
| 2026-05-05 21:49 | 51.82491 | -5.23024 | 35031 ft | 483 kts | 115° |
| 2026-05-05 21:49 | 51.79633 | -5.13197 | 35045 ft | 483 kts | 115° |
| 2026-05-05 21:50 | 51.76785 | -5.03359 | 35042 ft | 483 kts | 114° |
| 2026-05-05 21:50 | 51.74189 | -4.93422 | 35041 ft | 483 kts | 112° |
| 2026-05-05 21:51 | 51.71602 | -4.83408 | 35026 ft | 483 kts | 113° |
| 2026-05-05 21:51 | 51.68969 | -4.73440 | 35035 ft | 483 kts | 113° |
| 2026-05-05 21:52 | 51.64986 | -4.58520 | 35034 ft | 483 kts | 113° |
| 2026-05-05 21:53 | 51.62322 | -4.48579 | 35029 ft | 483 kts | 113° |
| 2026-05-05 21:53 | 51.59652 | -4.38656 | 35026 ft | 483 kts | 114° |
| 2026-05-05 21:54 | 51.56974 | -4.28756 | 35025 ft | 483 kts | 114° |
| 2026-05-05 21:54 | 51.54495 | -4.18733 | 35021 ft | 482 kts | 107° |
| 2026-05-05 21:55 | 51.53134 | -4.08255 | 35025 ft | 482 kts | 99° |
| 2026-05-05 21:55 | 51.51967 | -3.97648 | 35018 ft | 483 kts | 100° |
| 2026-05-05 21:56 | 51.50765 | -3.87044 | 35010 ft | 482 kts | 99° |
| 2026-05-05 21:56 | 51.49553 | -3.76517 | 35019 ft | 475 kts | 99° |
| 2026-05-05 21:57 | 51.48343 | -3.66054 | 35021 ft | 477 kts | 99° |
| 2026-05-05 21:57 | 51.47501 | -3.55517 | 35020 ft | 476 kts | 94° |
| 2026-05-05 21:58 | 51.46902 | -3.44946 | 35020 ft | 476 kts | 94° |
| 2026-05-05 21:58 | 51.46286 | -3.34448 | 35026 ft | 476 kts | 95° |
| 2026-05-05 21:59 | 51.45654 | -3.23866 | 35017 ft | 477 kts | 95° |
| 2026-05-05 21:59 | 51.45007 | -3.13269 | 35021 ft | 478 kts | 95° |
| 2026-05-05 22:00 | 51.44354 | -3.02665 | 35020 ft | 478 kts | 95° |
| 2026-05-05 22:00 | 51.43687 | -2.92038 | 35019 ft | 478 kts | 95° |
| 2026-05-05 22:01 | 51.43014 | -2.81422 | 35012 ft | 479 kts | 96° |
| 2026-05-05 22:01 | 51.42326 | -2.70788 | 34958 ft | 478 kts | 96° |
| 2026-05-05 22:01 | 51.41979 | -2.65508 | 34673 ft | 476 kts | 96° |
| 2026-05-05 22:02 | 51.41631 | -2.60199 | 34433 ft | 480 kts | 96° |
| 2026-05-05 22:02 | 51.41281 | -2.54886 | 34197 ft | 479 kts | 96° |
| 2026-05-05 22:02 | 51.40935 | -2.49666 | 33901 ft | 476 kts | 96° |
| 2026-05-05 22:02 | 51.40586 | -2.44396 | 33114 ft | 474 kts | 96° |
| 2026-05-05 22:03 | 51.40235 | -2.39152 | 32114 ft | 474 kts | 97° |
| 2026-05-05 22:03 | 51.39879 | -2.33899 | 31023 ft | 475 kts | 97° |
| 2026-05-05 22:03 | 51.39522 | -2.28649 | 30131 ft | 471 kts | 98° |
| 2026-05-05 22:03 | 51.39167 | -2.23473 | 29232 ft | 465 kts | 98° |
| 2026-05-05 22:04 | 51.38810 | -2.18357 | 28334 ft | 459 kts | 98° |
| 2026-05-05 22:04 | 51.38454 | -2.13302 | 27446 ft | 454 kts | 98° |
| 2026-05-05 22:04 | 51.38099 | -2.08301 | 26580 ft | 449 kts | 98° |
| 2026-05-05 22:04 | 51.37748 | -2.03352 | 25724 ft | 445 kts | 97° |
| 2026-05-05 22:05 | 51.37398 | -1.98446 | 24897 ft | 440 kts | 97° |
| 2026-05-05 22:05 | 51.37049 | -1.93602 | 24069 ft | 436 kts | 97° |
| 2026-05-05 22:05 | 51.36707 | -1.88795 | 23147 ft | 433 kts | 97° |
| 2026-05-05 22:05 | 51.36364 | -1.84036 | 22294 ft | 427 kts | 97° |
| 2026-05-05 22:06 | 51.36030 | -1.79425 | 21511 ft | 419 kts | 97° |
| 2026-05-05 22:06 | 51.35694 | -1.74826 | 20692 ft | 412 kts | 97° |
| 2026-05-05 22:06 | 51.35364 | -1.70314 | 19863 ft | 405 kts | 97° |
| 2026-05-05 22:06 | 51.35035 | -1.65870 | 19020 ft | 399 kts | 97° |
| 2026-05-05 22:07 | 51.34707 | -1.61476 | 18197 ft | 394 kts | 97° |
| 2026-05-05 22:07 | 51.34383 | -1.57179 | 17302 ft | 386 kts | 97° |
| 2026-05-05 22:07 | 51.34058 | -1.52931 | 16264 ft | 383 kts | 97° |
| 2026-05-05 22:07 | 51.33737 | -1.48701 | 15270 ft | 381 kts | 96° |
| 2026-05-05 22:08 | 51.33426 | -1.44556 | 14787 ft | 366 kts | 96° |
| 2026-05-05 22:08 | 51.33115 | -1.40459 | 14687 ft | 378 kts | 96° |
| 2026-05-05 22:08 | 51.32796 | -1.36295 | 14583 ft | 375 kts | 96° |
| 2026-05-05 22:08 | 51.32479 | -1.32189 | 14381 ft | 370 kts | 96° |
| 2026-05-05 22:09 | 51.32163 | -1.28118 | 13797 ft | 369 kts | 96° |
| 2026-05-05 22:09 | 51.31848 | -1.24072 | 13221 ft | 363 kts | 96° |
| 2026-05-05 22:09 | 51.31537 | -1.20072 | 12981 ft | 364 kts | 96° |
| 2026-05-05 22:09 | 51.31278 | -1.16043 | 12817 ft | 363 kts | 91° |
| 2026-05-05 22:10 | 51.31245 | -1.12005 | 12641 ft | 362 kts | 89° |
| 2026-05-05 22:10 | 51.31220 | -1.07980 | 12421 ft | 361 kts | 89° |
| 2026-05-05 22:10 | 51.31190 | -1.04032 | 12125 ft | 360 kts | 89° |
| 2026-05-05 22:10 | 51.31155 | -1.00027 | 11835 ft | 358 kts | 89° |
| 2026-05-05 22:11 | 51.31117 | -0.96054 | 11597 ft | 354 kts | 89° |
| 2026-05-05 22:11 | 51.31078 | -0.92204 | 11469 ft | 338 kts | 89° |
| 2026-05-05 22:11 | 51.31039 | -0.88555 | 11304 ft | 317 kts | 89° |
| 2026-05-05 22:11 | 51.31001 | -0.85141 | 10967 ft | 300 kts | 89° |
| 2026-05-05 22:12 | 51.30965 | -0.81838 | 10301 ft | 295 kts | 89° |
| 2026-05-05 22:12 | 51.30931 | -0.78613 | 9615 ft | 292 kts | 88° |
| 2026-05-05 22:12 | 51.30897 | -0.75433 | 9170 ft | 281 kts | 89° |
| 2026-05-05 22:12 | 51.30889 | -0.72385 | 9020 ft | 266 kts | 83° |
| 2026-05-05 22:13 | 51.31410 | -0.69693 | 8712 ft | 247 kts | 57° |
| 2026-05-05 22:13 | 51.32579 | -0.67831 | 8427 ft | 237 kts | 28° |
| 2026-05-05 22:13 | 51.34162 | -0.67136 | 8337 ft | 237 kts | 3° |
| 2026-05-05 22:13 | 51.35780 | -0.66618 | 7875 ft | 240 kts | 22° |
| 2026-05-05 22:14 | 51.37308 | -0.65613 | 7399 ft | 235 kts | 9° |
| 2026-05-05 22:14 | 51.38900 | -0.65831 | 7315 ft | 236 kts | 340° |
| 2026-05-05 22:14 | 51.40248 | -0.67300 | 7221 ft | 236 kts | 312° |
| 2026-05-05 22:14 | 51.40984 | -0.69648 | 7004 ft | 241 kts | 283° |
| 2026-05-05 22:15 | 51.40905 | -0.72306 | 6769 ft | 242 kts | 255° |
| 2026-05-05 22:15 | 51.40350 | -0.74798 | 6514 ft | 235 kts | 256° |
| 2026-05-05 22:15 | 51.40300 | -0.77313 | 6112 ft | 222 kts | 284° |
| 2026-05-05 22:15 | 51.40974 | -0.79467 | 5633 ft | 216 kts | 313° |
| 2026-05-05 22:16 | 51.42203 | -0.80752 | 5154 ft | 211 kts | 343° |
| 2026-05-05 22:16 | 51.43640 | -0.80819 | 4676 ft | 208 kts | 15° |
| 2026-05-05 22:16 | 51.44901 | -0.79738 | 4205 ft | 207 kts | 37° |
| 2026-05-05 22:16 | 51.45983 | -0.78215 | 3692 ft | 208 kts | 45° |
| 2026-05-05 22:17 | 51.46851 | -0.76380 | 3291 ft | 205 kts | 61° |
| 2026-05-05 22:17 | 51.47360 | -0.74315 | 3188 ft | 200 kts | 73° |
| 2026-05-05 22:17 | 51.47615 | -0.72113 | 3087 ft | 199 kts | 83° |
| 2026-05-05 22:17 | 51.47686 | -0.69962 | 2996 ft | 186 kts | 89° |
| 2026-05-05 22:18 | 51.47684 | -0.67963 | 2998 ft | 172 kts | 89° |
| 2026-05-05 22:18 | 51.47681 | -0.66072 | 3003 ft | 173 kts | 88° |
| 2026-05-05 22:18 | 51.47690 | -0.64154 | 2873 ft | 170 kts | 89° |
| 2026-05-05 22:18 | 51.47695 | -0.62296 | 2567 ft | 168 kts | 89° |
| 2026-05-05 22:19 | 51.47700 | -0.60457 | 2246 ft | 159 kts | 88° |
| 2026-05-05 22:19 | 51.47700 | -0.58707 | 1940 ft | 157 kts | 89° |
| 2026-05-05 22:19 | 51.47719 | -0.56991 | 1628 ft | 151 kts | 88° |
| 2026-05-05 22:19 | 51.47725 | -0.55269 | 1226 ft | 157 kts | 89° |
| 2026-05-05 22:20 | 51.47732 | -0.53520 | 815 ft | 154 kts | 89° |
| 2026-05-05 22:20 | 51.47738 | -0.51839 | 546 ft | 146 kts | 88° |
| 2026-05-05 22:20 | 51.47741 | -0.50263 | 346 ft | 138 kts | 88° |
| 2026-05-05 22:20 | 51.47750 | -0.48775 | 180 ft | 128 kts | 88° |
| 2026-05-05 22:21 | 51.47761 | -0.47445 | 95 ft | 94 kts | 89° |
| 2026-05-05 22:21 | 51.47761 | -0.46522 | 102 ft | 85 kts | 90° |
| 2026-05-05 22:21 | 51.47767 | -0.45627 | 96 ft | 75 kts | 89° |
| 2026-05-05 22:21 | 51.47765 | -0.45040 | 101 ft | 32 kts | 91° |
| 2026-05-05 22:22 | 51.47710 | -0.44847 | 102 ft | 10 kts | 144° |
| 2026-05-05 22:22 | 51.47652 | -0.44788 | 104 ft | 11 kts | 150° |
| 2026-05-05 22:22 | 51.47607 | -0.44686 | 99 ft | 12 kts | 98° |
| 2026-05-05 22:22 | 51.47601 | -0.44544 | 97 ft | 13 kts | 93° |
| 2026-05-05 22:23 | 51.47597 | -0.44398 | 97 ft | 13 kts | 92° |
| 2026-05-05 22:23 | 51.47595 | -0.44251 | 98 ft | 13 kts | 91° |
| 2026-05-05 22:23 | 51.47584 | -0.44103 | 96 ft | 13 kts | 110° |
| 2026-05-05 22:23 | 51.47538 | -0.44060 | 99 ft | 6 kts | 180° |
| 2026-05-05 22:24 | 51.47494 | -0.44061 | 97 ft | 6 kts | 180° |
| 2026-05-05 22:24 | 51.47315 | -0.44062 | 96 ft | 39 kts | 180° |
| 2026-05-05 22:24 | 51.47049 | -0.44058 | 94 ft | 37 kts | 179° |
| 2026-05-05 22:24 | 51.46829 | -0.44052 | 97 ft | 23 kts | 180° |
| 2026-05-05 22:25 | 51.46751 | -0.44125 | 94 ft | 3 kts | 252° |
| 2026-05-05 22:25 | 51.46755 | -0.44228 | 96 ft | 14 kts | 270° |
| 2026-05-05 22:25 | 51.46754 | -0.44384 | 96 ft | 14 kts | 269° |
| 2026-05-05 22:25 | 51.46753 | -0.44545 | 96 ft | 15 kts | 269° |
| 2026-05-05 22:26 | 51.46752 | -0.44660 | 97 ft | 0 kts | 270° |
| 2026-05-05 22:26 | 51.46753 | -0.44764 | 99 ft | 18 kts | 270° |
| 2026-05-05 22:26 | 51.46781 | -0.44857 | 101 ft | 7 kts | 333° |
| 2026-05-05 22:27 | 51.46834 | -0.44856 | 96 ft | 3 kts | 358° |
| 2026-05-05 22:27 | 51.46835 | -0.44857 | 97 ft | 0 kts | 357° |
| 2026-05-05 22:29 | 51.46832 | -0.44856 | 96 ft | 0 kts | 357° |